Αρχική σελίδα
METAR-TAF:

METAR-TAF

Αεροδρόμια :

São José do Rio Preto, Σάο Πάολο, Βραζιλία

γεωγραφικό πλάτος: 20-48-58S, γεωγραφικό μήκος: 049-24-17W, υψόμετρο: 543 μ

Παρών καιρός

Η αναφορά έγινε 1 ώρα και 14 λεπτά πριν, στις 18:00 UTC
Άνεμος 4 kt από Β/BA
Θερμοκρασία 30°C
Υγρασία 19%
Πίεση 1017 hPa
Ορατότητα 10 χλμ και άνω
Δεν υπάρχουν νέφη με βάση κάτω από τα 1500 μ. και δεν υπάρχουν νέφη σωρειτομελανίτες.

METAR: SBSR 201800Z 03004KT CAVOK 30/04 Q1017

Χρόνος: 16:14 (19:14 UTC)


TAF: λείπει

Μετεωρολογικές αναφορές και προγνώσεις για περισσότερα από 4000 αεροδρόμια (δελτία METAR και TAF).

Οι διαθέσιμοι σταθμοί απεικονίζονται στο χάρτη με κίτρινες και κόκκινες κουκκίδες.

Μετακινήστε το ποντίκι πάνω από τις κουκκίδες για να δείτε το όνομα του σταθμού.

Στη συνέχεια, κάντε κλικ για να δείτε τις μετεωρολογικές αναφορές και τις προγνώσεις καιρού.

Για να αλλάξετε το χάρτη: κάντε κλικ στα πράσινα κουμπιά με τον μαύρο σταυρό για να ζουμάρετε, στο πράσινο κουμπί με την παύλα για να αφαιρέσετε το ζουμ ή στα πράσινα βέλη για να αντιπαραβάλλετε χάρτες.


METAR-TAF: